This demonstration page uses our WeatherBlox Daily Observations layout. Learn more.

Left ArrowRight Arrow

Hourly Observations for March 11, 2015

Temp ( °F °C ) Dew Point ( °F °C ) Humidity (%) Winds ( mph kmh ) Pressure ( in mb ) Visibility ( mi km ) Precip ( " mm )
6:30 am 06:30 Cloudy with Fog 37 3 37 3 100 100 N N/A 30.21 1023 0 0 N/A
6:53 am 06:53 Cloudy with Fog 37 3 36 2 93 93 N N/A 30.21 1023 0 0 N/A
7:47 am 07:47 Cloudy with Fog 37 3 36 2 93 93 N N/A 30.21 1023 0 0 N/A
8:45 am 08:45 Cloudy with Fog 37 3 36 2 93 93 N N/A 30.24 1024 0 0 N/A
9:45 am 09:45 Cloudy with Fog 37 3 37 3 100 100 N N/A 30.27 1025 0 0 N/A
10:45 am 10:45 Cloudy with Fog 39 4 37 3 93 93 N N/A 30.27 1025 0 0 N/A
11:45 am 11:45 Cloudy with Fog 41 5 39 4 93 93 N N/A 30.30 1026 0 0 N/A
12:14 pm 12:14 Cloudy with Mist and Fog 41 5 41 5 100 100 N N/A 30.27 1025 1 1 N/A
12:20 pm 12:20 Cloudy with Mist and Fog 43 6 41 5 93 93 SW 3 6 30.27 1025 2 2 N/A
12:31 pm 12:31 Mostly Cloudy with Mist and Fog 45 7 43 6 93 93 SSW 6 9 30.27 1025 2 3 N/A
12:55 pm 12:55 Partly Cloudy with Mist and Fog 46 8 45 7 93 93 N N/A 30.27 1025 5 8 N/A
1:48 pm 13:48 Mostly Sunny 50 10 48 9 94 94 NE 5 7 30.24 1024 7 11 N/A
2:54 pm 14:54 Mostly Sunny 54 12 46 8 77 77 ESE 3 6 30.24 1024 7 11 N/A
3:53 pm 15:53 Mostly Sunny 55 13 46 8 72 72 N N/A 30.24 1024 7 11 N/A
4:45 pm 16:45 Mostly Sunny 59 15 46 8 63 63 N N/A 30.24 1024 7 11 N/A
5:55 pm 17:55 Mostly Sunny 59 15 46 8 63 63 E 3 6 N/A 2 3 N/A
6:54 pm 18:54 Mostly Sunny 57 14 46 8 67 67 E 3 6 N/A 2 3 N/A
7:57 pm 19:57 Mostly Clear 52 11 45 7 77 77 S 3 6 N/A 2 3 N/A
8:54 pm 20:54 Mostly Clear 46 8 41 5 82 82 NNE 10 17 N/A 2 3 N/A
9:59 pm 21:59 Mostly Clear with Mist and Fog 45 7 41 5 87 87 NNE 10 17 N/A 2 3 N/A

Powered by AerisWeather